Terminal Aerodrome Forecast
Issued by NWS Mt. Holly, NJ

Home | Current Version | Previous Version | Text Only | Print | Product List | Glossary On
Versions: 1 2 3 4 5 6 7 8 9 10 11 12 13 14 15 16 17 18 19 20 21 22 23 24 25 26
000
FTUS41 KPHI 101200 AAA
TAFACY
TAF AMD
KACY 101255Z 1013/1112 VRB03KT P6SM SCT015 BKN035
      TEMPO 1013/1015 2SM TSRA BKN015CB BKN035
     FM101600 12008KT P6SM SCT045
      TEMPO 1019/1023 -SHRA OVC045
     FM110100 VRB04KT P6SM SCT045 BKN100
     FM110800 04006KT P6SM SCT025 BKN080=

USA.gov is the U.S. government's official web portal to all federal, state and local government web resources and services.